Pronóstico
Mapa Interactivo
Aviación
Climatología
Hidrometeorología
Agrometeorología
Estaciones Automáticas
Transparencia
OMM WMO
Portada
Institución
Noticias
Imágenes
Tsunami
Historial
Boletines y Alertas
Contactos
Buscar Contenidos
Informe del Tiempo

 

           VUELOS DE BAJO NIVEL DESDE SUPERFICIE HASTA 24,000 PIES.

 
VALIDO DESDE 191200Z ...…………………….…………………HASTA 200000Z
SALIDA  Y  PUESTA  DEL  SOL  07:05 AM / 18:07 PM.

 

SANTO DOMINGO FIR...PORT-AU-PRINCE FIR. . .HISPANIOLA...SCT015-020. TIL 13Z OCNL VIS 4-5SM BR. AFT 17Z SCT-BKN040 TOP 080.
ISOL SHRA. OTLK...VFR...TIL 01Z SHRA...AFT 04Z OCNL MVFR BR.WTRS...SCT025 SCT050. OCNL SKC. OTLK...VFR. ICE AND FRZLVL...
NO SGFNT ICE EXP OUTSIDE CNVTV ACT.FRZLVL...ATLC... N 25N...125 N-160 S. S 25N...160-170.CARIB...155 NW-170 SE BECMG 140
NW-170 SE.GLFMEX...120 NW-155 SE BECMG 090 NW-140 SE..TURB...
NO SGFNT TURB EXP OUTSIDE CNVTV ACT.....

 

5,000 FT.

10,000 FT.

18,000 FT.

24,000 FT.

MDSD

1410KT+16ºC

1005KT+08ºC

0510KT-05ºC

2805KT-18ºC

MTPP

1210KT+16ºC

1005KT+08ºC

1710KT-05ºC

2305KT-18ºC

TJSJ

1610KT+15ºC

1205KT+09ºC

2905KT-06ºC

3305KT-18ºC

 

 

 

 

 

 

TAF MDPP 191000Z 1912/2012 00000KT 9999 SCT017 PROB30 1812/1918 8000 SH BKN016 BECMG 1913/1915 09012KT=

TAF MDST 191000Z 1912/2012 12008KT 9999 SCT016 PROB40 1912/1914 2000 BR BKN010=

TAF MDPC 191000Z 1912/2012 00000KT 9999 FEW016 BECMG 1913/1915 13010KT=

TAF MDBH 191000Z 1912/2012 13010KT 9999 FEW022 SCT300=

TAF MDJB 191000Z 1912/2012 16010KT 9999 SCT020=

TAF MDSD 191000Z 1912/2012 14010KT 9999 FEW020=

TAF MDLR 191000Z 1912/2012 00000KT 9999 FEW018 BECMG 1915/1917 15010KT SCT020=

TAF MDCY 191000Z 1912/2012 16008KT 9999 SCT018 BECMG 1922/2000 00000KT=

KMIA 190858Z 1909/2012 VRB03KT P6SM FEW030 SCT250 FM191400 12010KT P6SM SCT035 SCT250 FM200000 11006KT P6SM BKN250

KJFK 190837Z 1909/2012 30007KT P6SM FEW250 FM191600 25008KT P6SM BKN250 FM192000 22009KT P6SM BKN250 FM200900 21004KT P6SM SCT250

TJSJ 190541Z 1906/2006 VRB03KT P6SM VCSH FEW025 FM191400 05011KT P6SM SCT030 FM192330 11003KT P6SM FEW040

TAF MKJP 190515Z 1906/2006 36005KT 9999 FEW022 SCT032 BECMG 1914/1916 13015KT BECMG 2000/2002 36005KT FEW022

MUHA 190500Z 1906/2006 10005KT 9000 FEW030 BECMG 1913/1915 16010KT

TAF AMD MUGM 1907/2007 35006KT 9999 FEW030 QNH2994INS FM191800 14012KT 9999 FEW030 SCT280 QNH2993INS FM200300 35008KT 9999 FEW050 FEW300 QNH2995INS T21/1912Z T30/1918Z AMD 0733 FN00106

TAF TNCC 190930Z 1912/2012 11015KT 9999 SCT020 

 

PREPARADO POR: HENRIQUEZ A 19 de DICIEMBRE del 2018-